createdAt,value
2023-02-19T00:01:59.230Z,5.1
2023-02-19T00:07:43.097Z,5.3
2023-02-19T00:13:26.675Z,5.2
2023-02-19T00:19:14.210Z,6
2023-02-19T00:24:57.953Z,6.5
2023-02-19T00:30:41.604Z,5.1
2023-02-19T00:36:25.826Z,5.9
2023-02-19T00:42:09.524Z,5.7
2023-02-19T00:47:53.623Z,7.4
2023-02-19T00:53:37.443Z,5.6
2023-02-19T00:59:21.375Z,4.9
2023-02-19T01:05:05.076Z,5.3
2023-02-19T01:10:49.135Z,6.8
2023-02-19T01:16:33.059Z,5.1
2023-02-19T01:22:16.887Z,7.2
2023-02-19T01:28:00.409Z,6
2023-02-19T01:33:46.175Z,9.6
2023-02-19T01:39:29.933Z,9.2
2023-02-19T01:45:27.509Z,8.8
2023-02-19T01:51:14.379Z,7.9
2023-02-19T01:56:58.795Z,9.7
2023-02-19T02:02:43.800Z,10.4
2023-02-19T02:08:28.783Z,10.4
2023-02-19T02:14:12.475Z,10.7
2023-02-19T02:20:05.179Z,10.7
2023-02-19T02:26:05.929Z,10.9
2023-02-19T02:31:52.450Z,10.6
2023-02-19T02:37:37.821Z,11.9
2023-02-19T02:43:21.846Z,9.5
2023-02-19T02:49:07.875Z,10.1
2023-02-19T02:54:52.545Z,10.2
2023-02-19T03:00:36.738Z,10.8
2023-02-19T03:06:22.086Z,11.1
2023-02-19T03:12:07.884Z,10.1
2023-02-19T03:17:54.322Z,14.9
2023-02-19T03:23:39.616Z,9.6
2023-02-19T03:29:24.327Z,11.1
2023-02-19T03:35:12.117Z,11
2023-02-19T03:41:00.977Z,12.5
2023-02-19T03:46:48.326Z,10.4
2023-02-19T03:52:37.027Z,13.6
2023-02-19T03:58:25.966Z,10.5
2023-02-19T04:04:11.761Z,10.8
2023-02-19T04:09:56.590Z,10.8
2023-02-19T04:15:42.643Z,11.9
2023-02-19T04:21:26.663Z,10.8
2023-02-19T04:27:11.166Z,8.9
2023-02-19T04:32:54.943Z,12
2023-02-19T04:38:38.821Z,13.4
2023-02-19T04:44:22.639Z,10.4
2023-02-19T04:50:06.813Z,9.9
2023-02-19T04:55:50.649Z,11.7
2023-02-19T05:01:34.540Z,13.5
2023-02-19T05:07:18.266Z,12.2
2023-02-19T05:13:01.847Z,14
2023-02-19T05:18:46.809Z,11.1
2023-02-19T05:24:30.868Z,13.5
2023-02-19T05:30:15.401Z,11.1
2023-02-19T05:35:59.931Z,11.8
2023-02-19T05:41:43.751Z,13.5
2023-02-19T05:47:27.419Z,11.5
2023-02-19T05:53:11.787Z,14.1
2023-02-19T05:58:56.338Z,11.9
2023-02-19T06:04:40.101Z,11.8
2023-02-19T06:10:23.790Z,13.5
2023-02-19T06:16:10.248Z,14
2023-02-19T06:21:56.068Z,9.7
2023-02-19T06:27:39.785Z,13
2023-02-19T06:33:23.685Z,10.2
2023-02-19T06:39:07.875Z,13.3
2023-02-19T06:44:51.637Z,9.2
2023-02-19T06:50:35.226Z,11
2023-02-19T06:56:29.485Z,12.1
2023-02-19T07:02:13.594Z,10
2023-02-19T07:07:57.496Z,10.7
2023-02-19T07:13:42.323Z,9.2
2023-02-19T07:19:26.284Z,9.8
2023-02-19T07:25:10.707Z,12.1
2023-02-19T07:30:54.789Z,9.5
2023-02-19T07:36:40.633Z,13.1
2023-02-19T07:42:24.331Z,10.5
2023-02-19T07:48:08.145Z,6.8
2023-02-19T07:53:52.147Z,9
2023-02-19T07:59:36.793Z,9.4
2023-02-19T08:05:20.754Z,8.3
2023-02-19T08:11:07.483Z,10.6
2023-02-19T08:16:55.473Z,11.3
2023-02-19T08:22:39.455Z,11.7
2023-02-19T08:28:23.175Z,11
2023-02-19T08:34:08.133Z,6.7
2023-02-19T08:39:51.695Z,10.7
2023-02-19T08:45:35.550Z,10.3
2023-02-19T08:51:19.394Z,11
2023-02-19T08:57:03.241Z,9.3
2023-02-19T09:02:46.974Z,8
2023-02-19T09:08:30.766Z,9
2023-02-19T09:14:14.740Z,6.8
2023-02-19T09:19:58.490Z,9.1
2023-02-19T09:25:42.138Z,7.4
2023-02-19T09:31:26.094Z,9.4
2023-02-19T09:37:10.324Z,7.5
2023-02-19T09:42:55.227Z,11.3
2023-02-19T09:48:39.131Z,12.4
2023-02-19T09:54:25.126Z,9.8
2023-02-19T10:00:15.126Z,9.8
2023-02-19T10:05:58.933Z,6.9
2023-02-19T10:11:44.251Z,7.7
2023-02-19T10:17:31.234Z,9.2
2023-02-19T10:23:17.772Z,6.8
2023-02-19T10:29:01.708Z,7.7
2023-02-19T10:34:45.350Z,7.8
2023-02-19T10:40:33.102Z,10.6
2023-02-19T10:46:23.343Z,7.8
2023-02-19T10:52:12.090Z,6.1
2023-02-19T10:57:56.717Z,6.5
2023-02-19T11:03:40.742Z,6.8
2023-02-19T11:09:30.691Z,9.1
2023-02-19T11:15:22.730Z,7.4
2023-02-19T11:21:11.160Z,9.4
2023-02-19T11:26:55.340Z,9.5
2023-02-19T11:32:39.238Z,21
2023-02-19T11:38:23.961Z,13
2023-02-19T11:44:14.497Z,11.1
2023-02-19T11:50:03.337Z,9.7
2023-02-19T11:55:53.832Z,12
2023-02-19T12:01:47.595Z,9.9
2023-02-19T12:07:39.454Z,7.8
2023-02-19T12:13:29.101Z,9.4
2023-02-19T12:19:39.147Z,7.1
2023-02-19T12:25:28.062Z,10.2
2023-02-19T12:31:23.601Z,11
2023-02-19T12:37:14.959Z,9.4
2023-02-19T12:43:04.382Z,9.2
2023-02-19T12:48:49.527Z,7.4
2023-02-19T12:54:37.122Z,8.5
2023-02-19T13:00:29.116Z,10
2023-02-19T13:06:19.400Z,11.6
2023-02-19T13:12:08.151Z,9.4
2023-02-19T13:17:53.703Z,7.9
2023-02-19T13:23:38.674Z,9.8
2023-02-19T13:29:37.400Z,7.2
2023-02-19T13:35:30.972Z,10.2
2023-02-19T13:41:24.380Z,8.4
2023-02-19T13:47:07.974Z,8.1
2023-02-19T13:52:51.687Z,10.1
2023-02-19T13:58:47.167Z,8
2023-02-19T14:04:36.907Z,7.2
2023-02-19T14:10:26.588Z,7.1
2023-02-19T14:16:15.441Z,5.7
2023-02-19T14:21:59.167Z,7.6
2023-02-19T14:27:45.077Z,6.1
2023-02-19T14:33:29.851Z,6.2
2023-02-19T14:39:15.356Z,6
2023-02-19T14:45:01.077Z,5.7
2023-02-19T14:50:48.874Z,7.1
2023-02-19T14:56:35.528Z,5.2
2023-02-19T15:02:20.278Z,6.7
2023-02-19T15:08:05.822Z,5.3
2023-02-19T15:13:51.662Z,4.7
2023-02-19T15:19:36.479Z,4.2
2023-02-19T15:25:22.763Z,4.5
2023-02-19T15:31:23.785Z,5.4
2023-02-19T15:37:10.591Z,4.3
2023-02-19T15:42:54.589Z,5.2
2023-02-19T15:48:43.031Z,6.3
2023-02-19T15:54:30.174Z,5
2023-02-19T16:00:20.225Z,5.4
2023-02-19T16:06:08.046Z,5.2
2023-02-19T16:11:54.533Z,5.6
2023-02-19T16:17:38.530Z,5.3
2023-02-19T16:23:22.771Z,4.3
2023-02-19T16:29:06.459Z,6.2
2023-02-19T16:34:50.950Z,5.3
2023-02-19T16:40:51.911Z,5.4
2023-02-19T16:46:35.838Z,5.6
2023-02-19T16:52:19.958Z,5.4
2023-02-19T16:58:03.651Z,5.6
2023-02-19T17:03:48.669Z,6.8
2023-02-19T17:09:35.075Z,9.2
2023-02-19T17:15:18.948Z,6.9
2023-02-19T17:21:04.564Z,5.5
2023-02-19T17:26:48.411Z,7.2
2023-02-19T17:32:32.678Z,5.6
2023-02-19T17:38:16.916Z,6.5
2023-02-19T17:44:00.761Z,6.5
2023-02-19T17:49:45.296Z,6.1
2023-02-19T17:55:27.993Z,6.8
2023-02-19T18:01:12.381Z,6.9
2023-02-19T18:06:56.205Z,7
2023-02-19T18:12:39.889Z,10.1
2023-02-19T18:18:23.721Z,5.5
2023-02-19T18:24:07.979Z,5.7
2023-02-19T18:29:51.963Z,7.3
2023-02-19T18:35:37.560Z,8.8
2023-02-19T18:41:23.399Z,8.2
2023-02-19T18:47:07.749Z,8.6
2023-02-19T18:52:50.598Z,7.9
2023-02-19T18:58:34.479Z,7.9
2023-02-19T19:04:18.312Z,9.6
2023-02-19T19:10:01.983Z,10.9
2023-02-19T19:15:45.666Z,10
2023-02-19T19:21:30.578Z,9.3
2023-02-19T19:27:15.684Z,10
2023-02-19T19:33:01.535Z,11.4
2023-02-19T19:38:48.650Z,10.1
2023-02-19T19:44:32.487Z,10.5
2023-02-19T19:50:18.063Z,10.2
2023-02-19T19:56:02.394Z,13
2023-02-19T20:01:49.761Z,12.9
2023-02-19T20:07:33.444Z,11.9
2023-02-19T20:13:17.691Z,11.4
2023-02-19T20:19:01.395Z,12.3
2023-02-19T20:24:45.060Z,13.4
2023-02-19T20:30:28.969Z,12.6
2023-02-19T20:36:13.178Z,12.3
2023-02-19T20:41:57.449Z,13.4
2023-02-19T20:47:41.386Z,12
2023-02-19T20:53:25.235Z,12.8
2023-02-19T20:59:09.009Z,12.3
2023-02-19T21:04:52.695Z,13.2
2023-02-19T21:10:36.586Z,11.8
2023-02-19T21:16:23.303Z,13.5
2023-02-19T21:22:07.422Z,12.9
2023-02-19T21:27:51.191Z,12.4
2023-02-19T21:33:35.079Z,14.5
2023-02-19T21:39:20.342Z,14.2
2023-02-19T21:45:04.121Z,14.6
2023-02-19T21:50:47.847Z,14.6
2023-02-19T21:56:36.446Z,13.6
2023-02-19T22:02:20.410Z,13.7
2023-02-19T22:08:04.139Z,13.1
2023-02-19T22:13:48.118Z,11.6
2023-02-19T22:19:31.842Z,13
2023-02-19T22:25:15.768Z,11.8
2023-02-19T22:30:59.462Z,11.2
2023-02-19T22:36:44.484Z,13
2023-02-19T22:42:28.681Z,12.6
2023-02-19T22:48:29.947Z,12.2
2023-02-19T22:54:12.676Z,11
2023-02-19T22:59:57.352Z,13
2023-02-19T23:05:41.033Z,11.2
2023-02-19T23:11:27.865Z,12.2
2023-02-19T23:17:11.463Z,10.7
2023-02-19T23:22:55.356Z,11.3
2023-02-19T23:28:39.078Z,9.9
2023-02-19T23:34:22.959Z,10.3
2023-02-19T23:40:06.779Z,10.8
2023-02-19T23:45:50.607Z,13.3
2023-02-19T23:51:34.339Z,9.9
2023-02-19T23:57:19.196Z,11.2
